sensor_id;sensor_type;location;lat;lon;timestamp;P1;durP1;ratioP1;P2;durP2;ratioP2
29314;SDS011;16320;53.954;9.506;2022-08-19T00:02:00;17.33;;;11.27;;
29314;SDS011;16320;53.954;9.506;2022-08-19T00:05:04;21.35;;;11.30;;
29314;SDS011;16320;53.954;9.506;2022-08-19T00:08:10;21.67;;;10.70;;
29314;SDS011;16320;53.954;9.506;2022-08-19T00:11:14;22.92;;;11.15;;
29314;SDS011;16320;53.954;9.506;2022-08-19T00:14:29;16.70;;;10.05;;
29314;SDS011;16320;53.954;9.506;2022-08-19T00:17:35;20.23;;;10.60;;
29314;SDS011;16320;53.954;9.506;2022-08-19T00:20:44;15.95;;;9.95;;
29314;SDS011;16320;53.954;9.506;2022-08-19T00:23:49;16.67;;;10.35;;
29314;SDS011;16320;53.954;9.506;2022-08-19T00:26:54;18.67;;;9.73;;
29314;SDS011;16320;53.954;9.506;2022-08-19T00:30:19;28.20;;;10.85;;
29314;SDS011;16320;53.954;9.506;2022-08-19T00:33:24;19.83;;;10.23;;
29314;SDS011;16320;53.954;9.506;2022-08-19T00:36:33;26.42;;;12.45;;
29314;SDS011;16320;53.954;9.506;2022-08-19T00:39:37;17.55;;;10.68;;
29314;SDS011;16320;53.954;9.506;2022-08-19T00:42:42;18.27;;;12.60;;
29314;SDS011;16320;53.954;9.506;2022-08-19T00:45:47;14.50;;;10.65;;
29314;SDS011;16320;53.954;9.506;2022-08-19T00:48:53;21.10;;;11.95;;
29314;SDS011;16320;53.954;9.506;2022-08-19T00:52:00;33.25;;;13.90;;
29314;SDS011;16320;53.954;9.506;2022-08-19T00:55:08;22.75;;;13.02;;
29314;SDS011;16320;53.954;9.506;2022-08-19T00:58:17;20.08;;;11.50;;
29314;SDS011;16320;53.954;9.506;2022-08-19T01:01:25;22.05;;;12.70;;
29314;SDS011;16320;53.954;9.506;2022-08-19T01:04:29;22.85;;;11.50;;
29314;SDS011;16320;53.954;9.506;2022-08-19T01:07:34;19.08;;;11.73;;
29314;SDS011;16320;53.954;9.506;2022-08-19T01:10:48;18.33;;;11.25;;
29314;SDS011;16320;53.954;9.506;2022-08-19T01:14:00;24.48;;;11.98;;
29314;SDS011;16320;53.954;9.506;2022-08-19T01:17:05;23.52;;;12.60;;
29314;SDS011;16320;53.954;9.506;2022-08-19T01:20:15;25.50;;;12.85;;
29314;SDS011;16320;53.954;9.506;2022-08-19T01:23:25;20.85;;;12.90;;
29314;SDS011;16320;53.954;9.506;2022-08-19T01:26:46;30.15;;;13.30;;
29314;SDS011;16320;53.954;9.506;2022-08-19T01:29:51;24.63;;;13.30;;
29314;SDS011;16320;53.954;9.506;2022-08-19T01:32:56;22.65;;;12.73;;
29314;SDS011;16320;53.954;9.506;2022-08-19T01:36:05;32.58;;;16.27;;
29314;SDS011;16320;53.954;9.506;2022-08-19T01:39:18;27.77;;;15.88;;
29314;SDS011;16320;53.954;9.506;2022-08-19T01:42:27;31.45;;;15.93;;
29314;SDS011;16320;53.954;9.506;2022-08-19T01:45:33;31.58;;;17.05;;
29314;SDS011;16320;53.954;9.506;2022-08-19T01:48:40;32.42;;;17.52;;
29314;SDS011;16320;53.954;9.506;2022-08-19T01:51:47;37.60;;;17.33;;
29314;SDS011;16320;53.954;9.506;2022-08-19T01:54:53;42.00;;;17.25;;
29314;SDS011;16320;53.954;9.506;2022-08-19T01:57:58;36.35;;;16.98;;
29314;SDS011;16320;53.954;9.506;2022-08-19T02:01:05;33.90;;;16.85;;
29314;SDS011;16320;53.954;9.506;2022-08-19T02:04:11;33.33;;;18.67;;
29314;SDS011;16320;53.954;9.506;2022-08-19T02:07:15;31.23;;;16.52;;
29314;SDS011;16320;53.954;9.506;2022-08-19T02:10:25;31.50;;;18.60;;
29314;SDS011;16320;53.954;9.506;2022-08-19T02:13:30;36.28;;;18.63;;
29314;SDS011;16320;53.954;9.506;2022-08-19T02:16:35;33.33;;;17.95;;
29314;SDS011;16320;53.954;9.506;2022-08-19T02:19:40;35.38;;;18.88;;
29314;SDS011;16320;53.954;9.506;2022-08-19T02:22:45;35.55;;;19.15;;
29314;SDS011;16320;53.954;9.506;2022-08-19T02:25:49;39.25;;;18.90;;
29314;SDS011;16320;53.954;9.506;2022-08-19T02:28:55;39.35;;;19.63;;
29314;SDS011;16320;53.954;9.506;2022-08-19T02:32:00;41.70;;;21.48;;
29314;SDS011;16320;53.954;9.506;2022-08-19T02:35:05;41.72;;;21.33;;
29314;SDS011;16320;53.954;9.506;2022-08-19T02:38:15;49.58;;;22.85;;
29314;SDS011;16320;53.954;9.506;2022-08-19T02:41:29;46.70;;;21.52;;
29314;SDS011;16320;53.954;9.506;2022-08-19T02:44:36;54.88;;;22.52;;
29314;SDS011;16320;53.954;9.506;2022-08-19T02:47:40;55.90;;;23.60;;
29314;SDS011;16320;53.954;9.506;2022-08-19T02:50:46;51.47;;;24.00;;
29314;SDS011;16320;53.954;9.506;2022-08-19T02:53:58;51.58;;;23.08;;
29314;SDS011;16320;53.954;9.506;2022-08-19T02:57:04;50.10;;;23.13;;
29314;SDS011;16320;53.954;9.506;2022-08-19T03:00:09;57.35;;;23.52;;
29314;SDS011;16320;53.954;9.506;2022-08-19T03:03:18;54.00;;;24.35;;
29314;SDS011;16320;53.954;9.506;2022-08-19T03:06:23;59.45;;;25.48;;
29314;SDS011;16320;53.954;9.506;2022-08-19T03:09:27;57.70;;;25.02;;
29314;SDS011;16320;53.954;9.506;2022-08-19T03:12:37;67.00;;;26.92;;
29314;SDS011;16320;53.954;9.506;2022-08-19T03:15:43;60.58;;;26.98;;
29314;SDS011;16320;53.954;9.506;2022-08-19T03:18:50;61.65;;;27.02;;
29314;SDS011;16320;53.954;9.506;2022-08-19T03:21:57;73.10;;;26.80;;
29314;SDS011;16320;53.954;9.506;2022-08-19T03:25:02;54.75;;;24.83;;
29314;SDS011;16320;53.954;9.506;2022-08-19T03:28:07;56.22;;;24.90;;
29314;SDS011;16320;53.954;9.506;2022-08-19T03:31:17;59.03;;;25.63;;
29314;SDS011;16320;53.954;9.506;2022-08-19T03:34:45;51.85;;;23.65;;
29314;SDS011;16320;53.954;9.506;2022-08-19T03:37:50;56.47;;;23.27;;
29314;SDS011;16320;53.954;9.506;2022-08-19T03:40:54;62.85;;;24.58;;
29314;SDS011;16320;53.954;9.506;2022-08-19T03:43:58;62.05;;;25.35;;
29314;SDS011;16320;53.954;9.506;2022-08-19T03:47:03;60.83;;;24.98;;
29314;SDS011;16320;53.954;9.506;2022-08-19T03:50:09;77.30;;;27.45;;
29314;SDS011;16320;53.954;9.506;2022-08-19T03:53:14;72.03;;;28.95;;
29314;SDS011;16320;53.954;9.506;2022-08-19T03:56:19;76.93;;;30.30;;
29314;SDS011;16320;53.954;9.506;2022-08-19T03:59:31;68.43;;;29.55;;
29314;SDS011;16320;53.954;9.506;2022-08-19T04:02:38;66.72;;;27.95;;
29314;SDS011;16320;53.954;9.506;2022-08-19T04:06:09;74.32;;;30.52;;
29314;SDS011;16320;53.954;9.506;2022-08-19T04:09:14;74.60;;;31.60;;
29314;SDS011;16320;53.954;9.506;2022-08-19T04:12:19;73.90;;;31.15;;
29314;SDS011;16320;53.954;9.506;2022-08-19T04:15:24;69.13;;;31.63;;
29314;SDS011;16320;53.954;9.506;2022-08-19T04:18:28;65.22;;;30.75;;
29314;SDS011;16320;53.954;9.506;2022-08-19T04:21:39;71.00;;;29.95;;
29314;SDS011;16320;53.954;9.506;2022-08-19T04:24:46;73.88;;;30.45;;
29314;SDS011;16320;53.954;9.506;2022-08-19T04:27:50;62.60;;;31.13;;
29314;SDS011;16320;53.954;9.506;2022-08-19T04:30:55;71.25;;;31.67;;
29314;SDS011;16320;53.954;9.506;2022-08-19T04:34:00;75.80;;;34.80;;
29314;SDS011;16320;53.954;9.506;2022-08-19T04:37:08;77.15;;;33.45;;
29314;SDS011;16320;53.954;9.506;2022-08-19T04:40:16;61.72;;;31.38;;
29314;SDS011;16320;53.954;9.506;2022-08-19T04:43:39;78.97;;;35.00;;
29314;SDS011;16320;53.954;9.506;2022-08-19T04:46:47;68.95;;;31.83;;
29314;SDS011;16320;53.954;9.506;2022-08-19T04:49:55;61.13;;;32.30;;
29314;SDS011;16320;53.954;9.506;2022-08-19T04:52:59;68.35;;;34.08;;
29314;SDS011;16320;53.954;9.506;2022-08-19T04:56:05;61.17;;;31.05;;
29314;SDS011;16320;53.954;9.506;2022-08-19T05:02:23;57.35;;;30.45;;
29314;SDS011;16320;53.954;9.506;2022-08-19T05:05:29;52.30;;;30.67;;
29314;SDS011;16320;53.954;9.506;2022-08-19T05:08:48;54.28;;;31.13;;
29314;SDS011;16320;53.954;9.506;2022-08-19T05:11:53;52.40;;;27.77;;
29314;SDS011;16320;53.954;9.506;2022-08-19T05:14:58;56.05;;;31.63;;
29314;SDS011;16320;53.954;9.506;2022-08-19T05:18:04;62.38;;;30.83;;
29314;SDS011;16320;53.954;9.506;2022-08-19T05:21:27;53.03;;;30.52;;
29314;SDS011;16320;53.954;9.506;2022-08-19T05:24:51;56.65;;;31.45;;
29314;SDS011;16320;53.954;9.506;2022-08-19T05:28:15;54.50;;;33.15;;
29314;SDS011;16320;53.954;9.506;2022-08-19T05:31:20;46.75;;;29.30;;
29314;SDS011;16320;53.954;9.506;2022-08-19T05:34:25;53.35;;;29.85;;
29314;SDS011;16320;53.954;9.506;2022-08-19T05:37:31;60.53;;;30.48;;
29314;SDS011;16320;53.954;9.506;2022-08-19T05:40:35;59.10;;;29.17;;
29314;SDS011;16320;53.954;9.506;2022-08-19T05:43:41;54.28;;;29.35;;
29314;SDS011;16320;53.954;9.506;2022-08-19T05:46:45;67.85;;;28.52;;
29314;SDS011;16320;53.954;9.506;2022-08-19T05:49:50;56.25;;;30.33;;
29314;SDS011;16320;53.954;9.506;2022-08-19T05:52:55;58.60;;;29.05;;
29314;SDS011;16320;53.954;9.506;2022-08-19T05:56:07;60.30;;;27.67;;
29314;SDS011;16320;53.954;9.506;2022-08-19T05:59:16;48.22;;;26.08;;
29314;SDS011;16320;53.954;9.506;2022-08-19T06:02:21;45.67;;;24.17;;
29314;SDS011;16320;53.954;9.506;2022-08-19T06:05:26;47.13;;;24.15;;
29314;SDS011;16320;53.954;9.506;2022-08-19T06:08:30;48.83;;;24.90;;
29314;SDS011;16320;53.954;9.506;2022-08-19T06:11:39;52.08;;;25.00;;
29314;SDS011;16320;53.954;9.506;2022-08-19T06:14:59;36.08;;;21.38;;
29314;SDS011;16320;53.954;9.506;2022-08-19T06:18:10;47.13;;;22.70;;
29314;SDS011;16320;53.954;9.506;2022-08-19T06:21:15;41.28;;;23.60;;
29314;SDS011;16320;53.954;9.506;2022-08-19T06:24:21;38.15;;;21.55;;
29314;SDS011;16320;53.954;9.506;2022-08-19T06:27:28;49.30;;;23.63;;
29314;SDS011;16320;53.954;9.506;2022-08-19T06:30:35;33.53;;;20.08;;
29314;SDS011;16320;53.954;9.506;2022-08-19T06:33:41;39.45;;;22.58;;
29314;SDS011;16320;53.954;9.506;2022-08-19T06:36:47;39.60;;;23.30;;
29314;SDS011;16320;53.954;9.506;2022-08-19T06:39:54;51.97;;;25.63;;
29314;SDS011;16320;53.954;9.506;2022-08-19T06:42:59;44.70;;;24.48;;
29314;SDS011;16320;53.954;9.506;2022-08-19T06:46:13;42.42;;;24.27;;
29314;SDS011;16320;53.954;9.506;2022-08-19T06:49:20;53.30;;;25.52;;
29314;SDS011;16320;53.954;9.506;2022-08-19T06:52:26;46.45;;;23.50;;
29314;SDS011;16320;53.954;9.506;2022-08-19T06:55:31;43.00;;;24.73;;
29314;SDS011;16320;53.954;9.506;2022-08-19T06:58:36;40.97;;;23.90;;
29314;SDS011;16320;53.954;9.506;2022-08-19T07:01:43;44.47;;;24.05;;
29314;SDS011;16320;53.954;9.506;2022-08-19T07:04:53;38.28;;;22.58;;
29314;SDS011;16320;53.954;9.506;2022-08-19T07:08:01;56.90;;;26.80;;
29314;SDS011;16320;53.954;9.506;2022-08-19T07:11:08;47.72;;;25.42;;
29314;SDS011;16320;53.954;9.506;2022-08-19T07:14:18;45.42;;;25.00;;
29314;SDS011;16320;53.954;9.506;2022-08-19T07:17:26;43.35;;;25.27;;
29314;SDS011;16320;53.954;9.506;2022-08-19T07:20:30;51.08;;;23.58;;
29314;SDS011;16320;53.954;9.506;2022-08-19T07:23:37;46.67;;;26.52;;
29314;SDS011;16320;53.954;9.506;2022-08-19T07:26:42;43.47;;;24.10;;
29314;SDS011;16320;53.954;9.506;2022-08-19T07:29:47;48.17;;;24.95;;
29314;SDS011;16320;53.954;9.506;2022-08-19T07:32:59;44.30;;;25.02;;
29314;SDS011;16320;53.954;9.506;2022-08-19T07:36:07;45.30;;;24.48;;
29314;SDS011;16320;53.954;9.506;2022-08-19T07:39:16;46.25;;;26.15;;
29314;SDS011;16320;53.954;9.506;2022-08-19T07:42:28;48.60;;;22.63;;
29314;SDS011;16320;53.954;9.506;2022-08-19T07:45:35;43.47;;;22.23;;
29314;SDS011;16320;53.954;9.506;2022-08-19T07:48:43;40.78;;;22.17;;
29314;SDS011;16320;53.954;9.506;2022-08-19T07:51:55;38.80;;;21.25;;
29314;SDS011;16320;53.954;9.506;2022-08-19T07:55:07;45.20;;;22.50;;
29314;SDS011;16320;53.954;9.506;2022-08-19T07:58:34;46.25;;;21.58;;
29314;SDS011;16320;53.954;9.506;2022-08-19T08:01:43;35.65;;;19.98;;
29314;SDS011;16320;53.954;9.506;2022-08-19T08:04:48;33.50;;;19.98;;
29314;SDS011;16320;53.954;9.506;2022-08-19T08:08:12;42.70;;;21.42;;
29314;SDS011;16320;53.954;9.506;2022-08-19T08:11:52;38.97;;;19.98;;
29314;SDS011;16320;53.954;9.506;2022-08-19T08:15:29;34.97;;;19.80;;
29314;SDS011;16320;53.954;9.506;2022-08-19T08:18:34;38.25;;;19.67;;
29314;SDS011;16320;53.954;9.506;2022-08-19T08:21:45;32.90;;;18.98;;
29314;SDS011;16320;53.954;9.506;2022-08-19T08:24:49;30.65;;;16.98;;
29314;SDS011;16320;53.954;9.506;2022-08-19T08:27:54;23.35;;;16.83;;
29314;SDS011;16320;53.954;9.506;2022-08-19T08:31:00;26.67;;;17.27;;
29314;SDS011;16320;53.954;9.506;2022-08-19T08:34:12;28.65;;;15.93;;
29314;SDS011;16320;53.954;9.506;2022-08-19T08:37:17;28.45;;;16.38;;
29314;SDS011;16320;53.954;9.506;2022-08-19T08:43:34;25.80;;;15.68;;
29314;SDS011;16320;53.954;9.506;2022-08-19T08:46:47;28.33;;;16.42;;
29314;SDS011;16320;53.954;9.506;2022-08-19T08:50:04;30.48;;;17.15;;
29314;SDS011;16320;53.954;9.506;2022-08-19T08:53:10;25.38;;;15.65;;
29314;SDS011;16320;53.954;9.506;2022-08-19T08:56:32;23.73;;;16.88;;
29314;SDS011;16320;53.954;9.506;2022-08-19T08:59:38;26.80;;;16.25;;
29314;SDS011;16320;53.954;9.506;2022-08-19T09:02:45;25.90;;;16.13;;
29314;SDS011;16320;53.954;9.506;2022-08-19T09:12:35;24.00;;;16.25;;
29314;SDS011;16320;53.954;9.506;2022-08-19T09:16:15;25.48;;;15.90;;
29314;SDS011;16320;53.954;9.506;2022-08-19T09:19:30;22.85;;;16.60;;
29314;SDS011;16320;53.954;9.506;2022-08-19T09:22:36;24.75;;;15.65;;
29314;SDS011;16320;53.954;9.506;2022-08-19T09:25:43;25.08;;;15.90;;
29314;SDS011;16320;53.954;9.506;2022-08-19T09:28:48;28.60;;;16.15;;
29314;SDS011;16320;53.954;9.506;2022-08-19T09:31:56;25.90;;;17.55;;
29314;SDS011;16320;53.954;9.506;2022-08-19T09:35:01;27.85;;;18.10;;
29314;SDS011;16320;53.954;9.506;2022-08-19T09:38:20;26.13;;;17.85;;
29314;SDS011;16320;53.954;9.506;2022-08-19T09:41:25;34.58;;;17.30;;
29314;SDS011;16320;53.954;9.506;2022-08-19T09:44:32;24.63;;;15.98;;
29314;SDS011;16320;53.954;9.506;2022-08-19T09:47:45;24.40;;;15.73;;
29314;SDS011;16320;53.954;9.506;2022-08-19T09:50:51;29.50;;;17.60;;
29314;SDS011;16320;53.954;9.506;2022-08-19T09:53:58;31.65;;;17.75;;
29314;SDS011;16320;53.954;9.506;2022-08-19T09:57:07;32.00;;;17.85;;
29314;SDS011;16320;53.954;9.506;2022-08-19T10:00:12;27.85;;;17.63;;
29314;SDS011;16320;53.954;9.506;2022-08-19T10:03:24;28.67;;;17.45;;
29314;SDS011;16320;53.954;9.506;2022-08-19T10:06:33;31.60;;;18.17;;
29314;SDS011;16320;53.954;9.506;2022-08-19T10:09:49;29.08;;;17.02;;
29314;SDS011;16320;53.954;9.506;2022-08-19T10:12:56;32.08;;;17.05;;
29314;SDS011;16320;53.954;9.506;2022-08-19T10:16:07;27.20;;;18.35;;
29314;SDS011;16320;53.954;9.506;2022-08-19T10:19:22;27.42;;;18.52;;
29314;SDS011;16320;53.954;9.506;2022-08-19T10:22:37;27.45;;;17.85;;
29314;SDS011;16320;53.954;9.506;2022-08-19T10:25:49;27.55;;;18.20;;
29314;SDS011;16320;53.954;9.506;2022-08-19T10:29:01;26.73;;;17.63;;
29314;SDS011;16320;53.954;9.506;2022-08-19T10:32:12;25.67;;;18.15;;
29314;SDS011;16320;53.954;9.506;2022-08-19T10:35:19;29.88;;;18.75;;
29314;SDS011;16320;53.954;9.506;2022-08-19T10:38:50;26.55;;;17.52;;
29314;SDS011;16320;53.954;9.506;2022-08-19T10:42:24;31.92;;;18.85;;
29314;SDS011;16320;53.954;9.506;2022-08-19T10:45:43;26.25;;;18.48;;
29314;SDS011;16320;53.954;9.506;2022-08-19T10:48:55;26.55;;;18.63;;
29314;SDS011;16320;53.954;9.506;2022-08-19T10:52:00;24.17;;;17.30;;
29314;SDS011;16320;53.954;9.506;2022-08-19T10:55:35;33.22;;;18.75;;
29314;SDS011;16320;53.954;9.506;2022-08-19T10:58:58;22.98;;;17.55;;
29314;SDS011;16320;53.954;9.506;2022-08-19T11:02:04;26.85;;;18.10;;
29314;SDS011;16320;53.954;9.506;2022-08-19T11:05:13;25.30;;;18.45;;
29314;SDS011;16320;53.954;9.506;2022-08-19T11:08:30;30.85;;;18.80;;
29314;SDS011;16320;53.954;9.506;2022-08-19T11:11:48;30.85;;;20.33;;
29314;SDS011;16320;53.954;9.506;2022-08-19T11:18:47;28.90;;;18.50;;
29314;SDS011;16320;53.954;9.506;2022-08-19T11:22:02;22.55;;;17.80;;
29314;SDS011;16320;53.954;9.506;2022-08-19T11:25:08;21.95;;;16.92;;
29314;SDS011;16320;53.954;9.506;2022-08-19T11:28:14;21.42;;;15.88;;
29314;SDS011;16320;53.954;9.506;2022-08-19T11:31:21;24.48;;;17.33;;
29314;SDS011;16320;53.954;9.506;2022-08-19T11:34:32;23.58;;;15.88;;
29314;SDS011;16320;53.954;9.506;2022-08-19T11:37:37;19.33;;;14.63;;
29314;SDS011;16320;53.954;9.506;2022-08-19T11:40:41;20.20;;;13.88;;
29314;SDS011;16320;53.954;9.506;2022-08-19T11:43:46;17.35;;;13.57;;
29314;SDS011;16320;53.954;9.506;2022-08-19T11:46:51;16.20;;;13.65;;
29314;SDS011;16320;53.954;9.506;2022-08-19T11:49:56;16.90;;;13.35;;
29314;SDS011;16320;53.954;9.506;2022-08-19T11:53:05;19.73;;;13.85;;
29314;SDS011;16320;53.954;9.506;2022-08-19T11:59:49;16.73;;;12.93;;
29314;SDS011;16320;53.954;9.506;2022-08-19T12:02:59;15.02;;;12.25;;
29314;SDS011;16320;53.954;9.506;2022-08-19T12:06:05;15.48;;;11.27;;
29314;SDS011;16320;53.954;9.506;2022-08-19T12:09:17;15.65;;;12.43;;
29314;SDS011;16320;53.954;9.506;2022-08-19T12:12:36;15.38;;;11.55;;
29314;SDS011;16320;53.954;9.506;2022-08-19T12:16:10;17.90;;;12.73;;
29314;SDS011;16320;53.954;9.506;2022-08-19T12:19:28;17.42;;;12.70;;
29314;SDS011;16320;53.954;9.506;2022-08-19T12:22:38;19.13;;;13.50;;
29314;SDS011;16320;53.954;9.506;2022-08-19T12:25:47;16.98;;;14.52;;
29314;SDS011;16320;53.954;9.506;2022-08-19T12:29:04;20.55;;;14.40;;
29314;SDS011;16320;53.954;9.506;2022-08-19T12:32:15;18.95;;;12.93;;
29314;SDS011;16320;53.954;9.506;2022-08-19T12:35:35;19.98;;;15.35;;
29314;SDS011;16320;53.954;9.506;2022-08-19T12:44:23;34.97;;;27.33;;
29314;SDS011;16320;53.954;9.506;2022-08-19T12:47:37;33.38;;;28.05;;
29314;SDS011;16320;53.954;9.506;2022-08-19T12:51:05;37.03;;;28.35;;
29314;SDS011;16320;53.954;9.506;2022-08-19T12:54:21;35.33;;;27.73;;
29314;SDS011;16320;53.954;9.506;2022-08-19T12:57:41;29.25;;;23.58;;
29314;SDS011;16320;53.954;9.506;2022-08-19T13:00:49;27.88;;;22.77;;
29314;SDS011;16320;53.954;9.506;2022-08-19T13:04:07;32.60;;;27.73;;
29314;SDS011;16320;53.954;9.506;2022-08-19T13:07:18;30.42;;;26.10;;
29314;SDS011;16320;53.954;9.506;2022-08-19T13:10:36;35.10;;;25.75;;
29314;SDS011;16320;53.954;9.506;2022-08-19T13:13:45;28.42;;;23.00;;
29314;SDS011;16320;53.954;9.506;2022-08-19T13:16:55;28.30;;;23.33;;
29314;SDS011;16320;53.954;9.506;2022-08-19T13:20:12;24.95;;;21.92;;
29314;SDS011;16320;53.954;9.506;2022-08-19T13:23:24;27.65;;;22.08;;
29314;SDS011;16320;53.954;9.506;2022-08-19T13:26:32;26.52;;;21.00;;
29314;SDS011;16320;53.954;9.506;2022-08-19T13:29:42;22.85;;;19.55;;
29314;SDS011;16320;53.954;9.506;2022-08-19T13:33:16;23.35;;;20.08;;
29314;SDS011;16320;53.954;9.506;2022-08-19T13:36:24;22.58;;;19.25;;
29314;SDS011;16320;53.954;9.506;2022-08-19T13:39:32;24.90;;;19.27;;
29314;SDS011;16320;53.954;9.506;2022-08-19T13:42:50;29.88;;;20.85;;
29314;SDS011;16320;53.954;9.506;2022-08-19T13:46:07;28.17;;;20.60;;
29314;SDS011;16320;53.954;9.506;2022-08-19T13:49:14;20.17;;;17.38;;
29314;SDS011;16320;53.954;9.506;2022-08-19T13:52:23;23.40;;;19.63;;
29314;SDS011;16320;53.954;9.506;2022-08-19T13:55:36;25.38;;;20.20;;
29314;SDS011;16320;53.954;9.506;2022-08-19T13:58:48;26.67;;;21.23;;
29314;SDS011;16320;53.954;9.506;2022-08-19T14:01:57;25.95;;;19.90;;
29314;SDS011;16320;53.954;9.506;2022-08-19T14:05:07;23.55;;;19.83;;
29314;SDS011;16320;53.954;9.506;2022-08-19T14:08:19;27.35;;;19.73;;
29314;SDS011;16320;53.954;9.506;2022-08-19T14:11:27;24.42;;;19.65;;
29314;SDS011;16320;53.954;9.506;2022-08-19T14:14:37;23.80;;;18.25;;
29314;SDS011;16320;53.954;9.506;2022-08-19T14:17:43;25.35;;;19.35;;
29314;SDS011;16320;53.954;9.506;2022-08-19T14:20:53;24.05;;;18.00;;
29314;SDS011;16320;53.954;9.506;2022-08-19T14:23:58;22.73;;;18.33;;
29314;SDS011;16320;53.954;9.506;2022-08-19T14:27:03;24.58;;;17.63;;
29314;SDS011;16320;53.954;9.506;2022-08-19T14:30:12;24.83;;;19.15;;
29314;SDS011;16320;53.954;9.506;2022-08-19T14:33:25;30.65;;;20.08;;
29314;SDS011;16320;53.954;9.506;2022-08-19T14:36:37;23.17;;;18.15;;
29314;SDS011;16320;53.954;9.506;2022-08-19T14:39:44;21.52;;;17.20;;
29314;SDS011;16320;53.954;9.506;2022-08-19T14:42:48;21.90;;;17.50;;
29314;SDS011;16320;53.954;9.506;2022-08-19T14:45:53;27.10;;;18.80;;
29314;SDS011;16320;53.954;9.506;2022-08-19T14:48:57;24.92;;;18.45;;
29314;SDS011;16320;53.954;9.506;2022-08-19T14:52:03;23.02;;;20.23;;
29314;SDS011;16320;53.954;9.506;2022-08-19T14:55:08;27.58;;;21.90;;
29314;SDS011;16320;53.954;9.506;2022-08-19T14:58:13;27.48;;;21.50;;
29314;SDS011;16320;53.954;9.506;2022-08-19T15:01:32;28.50;;;24.10;;
29314;SDS011;16320;53.954;9.506;2022-08-19T15:04:38;31.08;;;25.42;;
29314;SDS011;16320;53.954;9.506;2022-08-19T15:07:43;29.10;;;25.27;;
29314;SDS011;16320;53.954;9.506;2022-08-19T15:10:47;26.25;;;23.42;;
29314;SDS011;16320;53.954;9.506;2022-08-19T15:13:52;28.58;;;22.88;;
29314;SDS011;16320;53.954;9.506;2022-08-19T15:16:58;22.88;;;19.50;;
29314;SDS011;16320;53.954;9.506;2022-08-19T15:20:03;21.23;;;19.02;;
29314;SDS011;16320;53.954;9.506;2022-08-19T15:23:09;22.55;;;20.17;;
29314;SDS011;16320;53.954;9.506;2022-08-19T15:26:20;22.73;;;18.88;;
29314;SDS011;16320;53.954;9.506;2022-08-19T15:29:52;19.10;;;17.02;;
29314;SDS011;16320;53.954;9.506;2022-08-19T15:33:10;19.98;;;17.67;;
29314;SDS011;16320;53.954;9.506;2022-08-19T15:36:32;21.40;;;17.92;;
29314;SDS011;16320;53.954;9.506;2022-08-19T15:39:53;24.42;;;20.67;;
29314;SDS011;16320;53.954;9.506;2022-08-19T15:43:08;23.52;;;19.48;;
29314;SDS011;16320;53.954;9.506;2022-08-19T15:46:17;23.65;;;19.60;;
29314;SDS011;16320;53.954;9.506;2022-08-19T15:49:25;20.40;;;18.30;;
29314;SDS011;16320;53.954;9.506;2022-08-19T15:52:32;30.63;;;24.65;;
29314;SDS011;16320;53.954;9.506;2022-08-19T15:55:43;24.52;;;21.60;;
29314;SDS011;16320;53.954;9.506;2022-08-19T15:58:52;26.30;;;23.25;;
29314;SDS011;16320;53.954;9.506;2022-08-19T16:02:16;29.30;;;24.20;;
29314;SDS011;16320;53.954;9.506;2022-08-19T16:05:41;28.75;;;22.00;;
29314;SDS011;16320;53.954;9.506;2022-08-19T16:09:11;24.65;;;20.67;;
29314;SDS011;16320;53.954;9.506;2022-08-19T16:12:20;27.77;;;19.10;;
29314;SDS011;16320;53.954;9.506;2022-08-19T16:15:33;24.80;;;20.08;;
29314;SDS011;16320;53.954;9.506;2022-08-19T16:18:37;24.45;;;20.25;;
29314;SDS011;16320;53.954;9.506;2022-08-19T16:21:43;24.70;;;20.50;;
29314;SDS011;16320;53.954;9.506;2022-08-19T16:24:50;19.70;;;15.10;;
29314;SDS011;16320;53.954;9.506;2022-08-19T16:27:55;17.13;;;15.10;;
29314;SDS011;16320;53.954;9.506;2022-08-19T16:31:11;16.13;;;14.52;;
29314;SDS011;16320;53.954;9.506;2022-08-19T16:34:18;16.10;;;14.50;;
29314;SDS011;16320;53.954;9.506;2022-08-19T16:37:26;18.77;;;16.08;;
29314;SDS011;16320;53.954;9.506;2022-08-19T16:40:33;16.95;;;14.82;;
29314;SDS011;16320;53.954;9.506;2022-08-19T16:43:49;14.43;;;12.93;;
29314;SDS011;16320;53.954;9.506;2022-08-19T16:46:57;14.90;;;13.35;;
29314;SDS011;16320;53.954;9.506;2022-08-19T16:50:03;13.90;;;12.50;;
29314;SDS011;16320;53.954;9.506;2022-08-19T16:53:12;16.67;;;14.75;;
29314;SDS011;16320;53.954;9.506;2022-08-19T16:56:22;18.65;;;15.98;;
29314;SDS011;16320;53.954;9.506;2022-08-19T16:59:28;18.13;;;15.60;;
29314;SDS011;16320;53.954;9.506;2022-08-19T17:02:37;17.80;;;14.48;;
29314;SDS011;16320;53.954;9.506;2022-08-19T17:05:45;16.02;;;13.88;;
29314;SDS011;16320;53.954;9.506;2022-08-19T17:08:53;16.70;;;15.00;;
29314;SDS011;16320;53.954;9.506;2022-08-19T17:12:03;15.40;;;12.68;;
29314;SDS011;16320;53.954;9.506;2022-08-19T17:15:15;15.23;;;12.77;;
29314;SDS011;16320;53.954;9.506;2022-08-19T17:18:20;14.38;;;12.88;;
29314;SDS011;16320;53.954;9.506;2022-08-19T17:21:26;13.23;;;11.82;;
29314;SDS011;16320;53.954;9.506;2022-08-19T17:24:35;11.82;;;10.63;;
29314;SDS011;16320;53.954;9.506;2022-08-19T17:27:43;10.98;;;9.88;;
29314;SDS011;16320;53.954;9.506;2022-08-19T17:30:47;11.07;;;10.07;;
29314;SDS011;16320;53.954;9.506;2022-08-19T17:33:56;11.55;;;10.45;;
29314;SDS011;16320;53.954;9.506;2022-08-19T17:37:07;10.60;;;9.20;;
29314;SDS011;16320;53.954;9.506;2022-08-19T17:40:12;10.15;;;9.05;;
29314;SDS011;16320;53.954;9.506;2022-08-19T17:43:26;9.63;;;8.63;;
29314;SDS011;16320;53.954;9.506;2022-08-19T17:46:46;9.65;;;8.75;;
29314;SDS011;16320;53.954;9.506;2022-08-19T17:49:51;10.18;;;8.82;;
29314;SDS011;16320;53.954;9.506;2022-08-19T17:52:59;9.75;;;8.02;;
29314;SDS011;16320;53.954;9.506;2022-08-19T17:56:06;7.90;;;7.20;;
29314;SDS011;16320;53.954;9.506;2022-08-19T17:59:10;8.55;;;7.75;;
29314;SDS011;16320;53.954;9.506;2022-08-19T18:02:20;6.93;;;6.32;;
29314;SDS011;16320;53.954;9.506;2022-08-19T18:05:26;10.27;;;7.63;;
29314;SDS011;16320;53.954;9.506;2022-08-19T18:11:44;7.35;;;6.72;;
29314;SDS011;16320;53.954;9.506;2022-08-19T18:14:56;8.02;;;6.95;;
29314;SDS011;16320;53.954;9.506;2022-08-19T18:18:01;8.90;;;7.00;;
29314;SDS011;16320;53.954;9.506;2022-08-19T18:21:19;7.65;;;6.70;;
29314;SDS011;16320;53.954;9.506;2022-08-19T18:24:24;7.13;;;6.45;;
29314;SDS011;16320;53.954;9.506;2022-08-19T18:27:29;7.75;;;6.95;;
29314;SDS011;16320;53.954;9.506;2022-08-19T18:30:33;8.93;;;7.00;;
29314;SDS011;16320;53.954;9.506;2022-08-19T18:33:38;7.25;;;6.55;;
29314;SDS011;16320;53.954;9.506;2022-08-19T18:36:48;7.57;;;6.63;;
29314;SDS011;16320;53.954;9.506;2022-08-19T18:39:59;7.20;;;6.25;;
29314;SDS011;16320;53.954;9.506;2022-08-19T18:43:27;7.47;;;6.60;;
29314;SDS011;16320;53.954;9.506;2022-08-19T18:46:55;7.40;;;6.70;;
29314;SDS011;16320;53.954;9.506;2022-08-19T18:50:26;8.60;;;6.45;;
29314;SDS011;16320;53.954;9.506;2022-08-19T18:53:43;7.18;;;6.43;;
29314;SDS011;16320;53.954;9.506;2022-08-19T18:57:00;7.60;;;6.20;;
29314;SDS011;16320;53.954;9.506;2022-08-19T19:00:09;7.32;;;6.35;;
29314;SDS011;16320;53.954;9.506;2022-08-19T19:03:18;7.05;;;6.38;;